Time;durP1;ratioP1;P1;durP2;ratioP2;P2;SDS_P1;SDS_P2;PMS_P1;PMS_P2;Temp;Humidity;BMP_temperature;BMP_pressure;BME280_temperature;BME280_humidity;BME280_pressure;Samples;Min_cycle;Max_cycle;Signal;HPM_P1;HPM_P2
2022/09/27 00:01:29;;;;;;;10.13;5.90;;;;;;;12.77;90.23;99344.23;1762463;81;21194;-65
2022/09/27 00:04:01;;;;;;;7.22;4.95;;;;;;;12.80;90.29;99342.39;1743631;81;21127;-64
2022/09/27 00:06:31;;;;;;;7.80;5.20;;;;;;;12.83;90.22;99340.53;1755189;81;21147;-64
2022/09/27 00:09:02;;;;;;;6.33;5.03;;;;;;;12.85;90.14;99334.27;1759907;81;21163;-63
2022/09/27 00:11:38;;;;;;;6.90;5.10;;;;;;;12.82;90.12;99336.11;1750575;81;21520;-63
2022/09/27 00:14:07;;;;;;;10.03;5.45;;;;;;;12.82;90.24;99327.03;1681753;85;21632;-63
2022/09/27 00:16:38;;;;;;;5.95;4.80;;;;;;;12.81;90.36;99332.23;1756174;81;21152;-64
2022/09/27 00:19:17;;;;;;;7.45;5.17;;;;;;;12.80;90.41;99328.64;1747654;81;21123;-64
2022/09/27 00:21:46;;;;;;;6.92;5.53;;;;;;;12.81;90.33;99323.98;1740412;81;21147;-64
2022/09/27 00:24:20;;;;;;;6.40;5.42;;;;;;;12.77;90.42;99318.13;1707808;84;21158;-64
2022/09/27 00:26:49;;;;;;;7.33;5.78;;;;;;;12.73;90.59;99318.30;1744046;81;21516;-65
2022/09/27 00:29:19;;;;;;;8.05;4.85;;;;;;;12.72;90.59;99315.80;1755094;80;21146;-64
2022/09/27 00:31:49;;;;;;;9.05;4.95;;;;;;;12.70;90.62;99308.63;1743942;81;21112;-64
2022/09/27 00:34:21;;;;;;;7.50;5.55;;;;;;;12.69;90.64;99306.11;1743770;81;21121;-64
2022/09/27 00:36:52;;;;;;;7.37;5.87;;;;;;;12.67;90.72;99307.73;1744210;81;21539;-65
2022/09/27 00:39:21;;;;;;;7.75;5.35;;;;;;;12.65;90.74;99304.38;1690250;82;21597;-63
2022/09/27 00:41:51;;;;;;;11.60;5.28;;;;;;;12.62;90.72;99293.03;1743667;81;21091;-64
2022/09/27 00:44:32;;;;;;;8.38;5.78;;;;;;;12.60;90.73;99288.30;1744013;81;21405;-63
2022/09/27 00:47:07;;;;;;;11.28;5.65;;;;;;;12.57;90.85;99284.66;1744220;81;21155;-63
2022/09/27 00:49:45;;;;;;;10.38;6.10;;;;;;;12.59;90.98;99286.63;1687522;82;21162;-63
2022/09/27 00:52:28;;;;;;;7.80;5.75;;;;;;;12.59;90.94;99283.88;1760499;81;21167;-64
2022/09/27 00:55:02;;;;;;;9.48;6.15;;;;;;;12.55;91.11;99290.93;1737906;82;21176;-63
2022/09/27 00:57:32;;;;;;;8.68;5.70;;;;;;;12.53;91.20;99278.80;1726217;82;21182;-63
2022/09/27 01:00:08;;;;;;;8.23;5.78;;;;;;;12.54;91.28;99271.40;1747833;82;21150;-64
2022/09/27 01:02:41;;;;;;;8.50;6.17;;;;;;;12.54;91.40;99267.28;1720007;82;21568;-65
2022/09/27 01:05:12;;;;;;;9.35;6.20;;;;;;;12.54;91.50;99271.40;1719803;82;21185;-65
2022/09/27 01:07:43;;;;;;;9.80;6.33;;;;;;;12.53;91.58;99265.06;1719738;82;21150;-64
2022/09/27 01:10:13;;;;;;;9.40;5.47;;;;;;;12.50;91.80;99258.67;1670716;85;21194;-64
2022/09/27 01:12:48;;;;;;;7.45;5.37;;;;;;;12.51;91.97;99269.13;1675952;84;21143;-63
2022/09/27 01:15:48;;;;;;;10.48;6.40;;;;;;;12.52;92.16;99261.19;1696443;84;21139;-65
2022/09/27 01:18:34;;;;;;;9.30;6.62;;;;;;;12.53;92.25;99255.45;1680706;84;21142;-64
2022/09/27 01:21:32;;;;;;;8.70;6.10;;;;;;;12.52;92.29;99249.66;1701220;84;21154;-64
2022/09/27 01:24:24;;;;;;;;;;;;;;;12.51;92.42;99243.86;1699090;84;21222;-64
2022/09/27 01:27:13;;;;;;;8.05;5.97;;;;;;;12.55;92.51;99249.72;1661602;85;20512;-64
2022/09/27 01:30:20;;;;;;;9.10;6.17;;;;;;;12.54;92.57;99241.17;1676159;85;21617;-64
2022/09/27 01:33:05;;;;;;;8.28;6.87;;;;;;;12.54;92.67;99227.44;1676652;85;21123;-64
2022/09/27 01:36:06;;;;;;;9.80;7.20;;;;;;;12.53;92.76;99226.60;1720294;82;21130;-63
2022/09/27 01:39:04;;;;;;;10.23;6.90;;;;;;;12.51;92.92;99225.17;1731487;82;21145;-63
2022/09/27 01:41:52;;;;;;;12.45;7.28;;;;;;;12.51;92.83;99222.42;1746409;82;21173;-64
2022/09/27 01:44:50;;;;;;;11.18;7.78;;;;;;;12.45;92.85;99226.96;1731628;82;21151;-64
2022/09/27 01:47:25;;;;;;;11.05;7.97;;;;;;;12.43;93.13;99222.78;1731177;81;21157;-63
2022/09/27 01:50:25;;;;;;;13.30;8.80;;;;;;;12.44;93.34;99217.59;1720154;82;21102;-63
2022/09/27 01:53:24;;;;;;;14.05;8.63;;;;;;;12.43;93.46;99220.03;1685226;84;21174;-64
2022/09/27 01:55:59;;;;;;;12.05;7.83;;;;;;;12.45;93.57;99215.97;1739804;81;21582;-63
2022/09/27 01:58:56;;;;;;;15.70;8.75;;;;;;;12.45;93.59;99209.11;1755903;81;21116;-64
2022/09/27 02:01:28;;;;;;;12.95;8.98;;;;;;;12.45;93.61;99198.66;1738082;80;21155;-64
2022/09/27 02:03:59;;;;;;;13.03;8.95;;;;;;;12.40;93.71;99194.41;1743836;81;21158;-63
2022/09/27 02:06:44;;;;;;;12.47;8.90;;;;;;;12.36;93.96;99199.02;1747151;79;21225;-64
2022/09/27 02:09:32;;;;;;;11.80;8.50;;;;;;;12.37;94.05;99199.31;1749668;80;21167;-64
2022/09/27 02:12:09;;;;;;;13.40;8.60;;;;;;;12.40;94.25;99202.66;1743510;81;21551;-64
2022/09/27 02:15:04;;;;;;;14.25;9.63;;;;;;;12.41;94.39;99197.46;1758449;79;21621;-65
2022/09/27 02:18:01;;;;;;;15.83;9.18;;;;;;;12.41;94.44;99201.05;1745903;81;21190;-63
2022/09/27 02:20:41;;;;;;;14.00;9.13;;;;;;;12.43;94.57;99194.77;1744780;81;21186;-65
2022/09/27 02:23:26;;;;;;;17.10;9.15;;;;;;;12.45;94.60;99193.16;1742572;81;21572;-65
2022/09/27 02:26:24;;;;;;;15.63;9.05;;;;;;;12.45;94.58;99193.16;1744081;81;21174;-65
2022/09/27 02:29:17;;;;;;;14.23;9.53;;;;;;;12.44;94.69;99185.99;1761219;81;21076;-64
2022/09/27 02:31:49;;;;;;;17.73;9.15;;;;;;;12.43;94.82;99184.33;1743750;80;21187;-63
2022/09/27 02:34:24;;;;;;;13.88;9.68;;;;;;;12.43;94.82;99173.33;1710174;82;21151;-65
2022/09/27 02:36:53;;;;;;;14.13;8.65;;;;;;;12.43;94.80;99171.96;1743933;80;21096;-64
2022/09/27 02:39:23;;;;;;;13.03;9.20;;;;;;;12.44;94.94;99177.75;1686578;83;21146;-64
2022/09/27 02:41:57;;;;;;;13.53;9.80;;;;;;;12.45;94.93;99175.30;1732412;82;21100;-64
2022/09/27 02:44:26;;;;;;;12.82;9.13;;;;;;;12.43;95.03;99176.92;1754721;81;21182;-65
2022/09/27 02:47:20;;;;;;;13.32;9.80;;;;;;;12.44;95.04;99175.84;1769427;81;21209;-64
2022/09/27 02:50:26;;;;;;;13.08;9.28;;;;;;;12.42;94.97;99171.13;1745898;81;21162;-64
2022/09/27 02:53:21;;;;;;;14.70;9.88;;;;;;;12.40;95.02;99163.66;1759745;81;21190;-64
2022/09/27 02:56:40;;;;;;;17.50;12.15;;;;;;;12.40;95.19;99158.17;1758371;80;21516;-64
2022/09/27 02:59:44;;;;;;;17.90;10.65;;;;;;;12.40;95.36;99157.33;1748360;80;21179;-63
2022/09/27 03:02:52;;;;;;;17.05;10.03;;;;;;;12.42;95.41;99152.44;1741731;81;21084;-65
2022/09/27 03:05:45;;;;;;;16.17;10.13;;;;;;;12.42;95.51;99146.94;1767393;79;21398;-65
2022/09/27 03:08:15;;;;;;;16.65;11.12;;;;;;;12.46;95.58;99148.97;1767644;81;21083;-64
2022/09/27 03:10:44;;;;;;;21.90;11.75;;;;;;;12.47;95.55;99153.92;1734201;81;21147;-64
2022/09/27 03:13:15;;;;;;;18.52;11.28;;;;;;;12.48;95.52;99157.80;1756635;81;21516;-64
2022/09/27 03:15:45;;;;;;;24.10;14.15;;;;;;;12.47;95.51;99149.27;1768084;81;21100;-62
2022/09/27 03:18:34;;;;;;;21.30;13.10;;;;;;;12.46;95.46;99144.84;1754388;81;21108;-64
2022/09/27 03:21:12;;;;;;;25.30;14.83;;;;;;;12.46;95.47;99141.27;1745725;81;21182;-64
2022/09/27 03:23:41;;;;;;;27.10;15.30;;;;;;;12.48;95.52;99141.86;1743880;81;21155;-63
2022/09/27 03:26:11;;;;;;;26.40;14.23;;;;;;;12.50;95.57;99142.45;1692262;83;21213;-64
2022/09/27 03:28:42;;;;;;;21.65;13.58;;;;;;;12.52;95.41;99138.92;1743915;81;21291;-63
2022/09/27 03:31:11;;;;;;;24.35;14.73;;;;;;;12.53;95.40;99135.10;1695716;84;21152;-64
2022/09/27 03:33:51;;;;;;;29.50;16.07;;;;;;;12.55;95.38;99148.06;1742272;81;21127;-64
2022/09/27 03:36:21;;;;;;;25.85;15.93;;;;;;;12.56;95.37;99140.95;1743692;81;21174;-63
2022/09/27 03:38:51;;;;;;;25.57;16.02;;;;;;;12.57;95.28;99137.66;1744865;81;21177;-65
2022/09/27 03:41:21;;;;;;;26.12;15.00;;;;;;;12.56;95.30;99131.87;1745439;81;21155;-63
2022/09/27 03:43:51;;;;;;;27.40;16.12;;;;;;;12.56;95.35;99134.08;1765528;80;21143;-63
2022/09/27 03:46:20;;;;;;;29.27;17.55;;;;;;;12.57;95.37;99140.41;1756497;81;21181;-63
2022/09/27 03:48:51;;;;;;;31.30;18.42;;;;;;;12.60;95.38;99137.18;1766788;81;21583;-65
2022/09/27 03:51:20;;;;;;;32.78;19.73;;;;;;;12.61;95.32;99131.44;1761319;81;21185;-64
2022/09/27 03:53:51;;;;;;;32.23;17.00;;;;;;;12.62;95.17;99128.16;1773895;81;21147;-66
2022/09/27 03:56:21;;;;;;;30.40;18.32;;;;;;;12.59;95.14;99130.02;1767009;80;21194;-64
2022/09/27 03:58:50;;;;;;;28.30;16.82;;;;;;;12.58;95.18;99127.80;1771856;80;21163;-64
2022/09/27 04:01:22;;;;;;;33.18;18.02;;;;;;;12.59;95.22;99128.64;1734115;80;21198;-63
2022/09/27 04:03:52;;;;;;;28.40;17.52;;;;;;;12.58;95.28;99129.72;1666563;85;21166;-65
2022/09/27 04:06:27;;;;;;;32.67;18.05;;;;;;;12.59;95.34;99139.63;1750553;81;21115;-65
2022/09/27 04:08:57;;;;;;;29.27;17.50;;;;;;;12.57;95.33;99133.00;1761039;79;21119;-63
2022/09/27 04:11:29;;;;;;;27.77;17.02;;;;;;;12.55;95.37;99126.08;1775850;80;21178;-63
2022/09/27 04:13:59;;;;;;;30.88;16.82;;;;;;;12.56;95.51;99124.47;1751609;80;21178;-63
2022/09/27 04:16:31;;;;;;;28.98;18.15;;;;;;;12.58;95.55;99127.80;1754025;80;21142;-64
2022/09/27 04:19:15;;;;;;;30.55;18.57;;;;;;;12.57;95.59;99124.76;1750237;80;21111;-64
2022/09/27 04:21:50;;;;;;;32.88;18.85;;;;;;;12.57;95.80;99123.92;1770850;80;21139;-65
2022/09/27 04:24:20;;;;;;;33.58;18.05;;;;;;;12.59;95.90;99131.39;1767351;80;21104;-62
2022/09/27 04:26:53;;;;;;;34.45;18.90;;;;;;;12.60;95.96;99124.81;1750831;80;21123;-64
2022/09/27 04:29:25;;;;;;;34.85;20.08;;;;;;;12.61;95.92;99127.86;1752061;80;21143;-64
2022/09/27 04:31:55;;;;;;;35.50;20.25;;;;;;;12.59;95.73;99119.02;1760340;80;21083;-64
2022/09/27 04:37:25;;;;;;;32.50;17.82;;;;;;;12.55;95.98;99115.92;1769550;80;21112;-64
2022/09/27 04:39:57;;;;;;;33.02;19.35;;;;;;;12.58;96.03;99118.73;1742100;81;21139;-65
2022/09/27 04:42:27;;;;;;;37.67;20.15;;;;;;;12.59;96.01;99110.78;1765199;80;21142;-65
2022/09/27 04:44:57;;;;;;;32.98;18.95;;;;;;;12.58;96.13;99108.57;1760035;80;21130;-64
2022/09/27 04:47:27;;;;;;;33.85;17.90;;;;;;;12.59;96.14;99110.78;1755186;80;21601;-65
2022/09/27 04:49:57;;;;;;;35.73;19.73;;;;;;;12.57;96.14;99099.20;1752024;80;21563;-63
2022/09/27 04:52:26;;;;;;;32.75;18.60;;;;;;;12.57;96.13;99092.33;1703517;83;21205;-64
2022/09/27 04:54:57;;;;;;;35.50;19.15;;;;;;;12.58;96.17;99088.50;1772052;80;21547;-66
2022/09/27 04:57:28;;;;;;;37.85;21.35;;;;;;;12.58;96.27;99085.75;1761116;80;21234;-64
2022/09/27 04:59:59;;;;;;;39.33;20.25;;;;;;;12.59;96.34;99087.42;1757411;80;21095;-64
2022/09/27 05:02:30;;;;;;;38.08;19.77;;;;;;;12.60;96.38;99082.23;1707780;82;21114;-64
2022/09/27 05:05:03;;;;;;;36.23;19.00;;;;;;;12.63;96.36;99074.87;1703234;83;21102;-63
2022/09/27 05:07:37;;;;;;;37.10;19.85;;;;;;;12.63;96.35;99072.95;1716144;83;21144;-64
2022/09/27 05:10:09;;;;;;;35.13;19.17;;;;;;;12.63;96.44;99068.00;1712690;83;21120;-63
2022/09/27 05:12:39;;;;;;;35.52;19.65;;;;;;;12.64;96.63;99066.92;1716638;83;21099;-64
2022/09/27 05:15:09;;;;;;;35.45;19.07;;;;;;;12.64;96.70;99076.00;1681563;83;21615;-63
2022/09/27 05:17:57;;;;;;;38.10;19.90;;;;;;;12.67;96.71;99071.39;1709716;83;21181;-64
2022/09/27 05:20:36;;;;;;;38.48;20.65;;;;;;;12.67;96.61;99070.02;1663986;83;21135;-63
2022/09/27 05:23:14;;;;;;;37.10;19.37;;;;;;;12.69;96.72;99073.89;1709309;83;21116;-63
2022/09/27 05:25:44;;;;;;;37.03;19.62;;;;;;;12.70;96.85;99069.53;1716168;83;21570;-63
2022/09/27 05:28:13;;;;;;;37.85;19.65;;;;;;;12.76;96.81;99070.46;1727776;82;21614;-65
2022/09/27 05:30:44;;;;;;;37.90;19.27;;;;;;;12.77;96.69;99074.88;1716411;83;21135;-64
2022/09/27 05:33:16;;;;;;;36.98;20.65;;;;;;;12.76;96.61;99075.96;1721393;82;21079;-65
2022/09/27 05:35:54;;;;;;;37.28;20.23;;;;;;;12.76;96.68;99086.95;1731517;82;21190;-63
2022/09/27 05:38:26;;;;;;;38.33;20.32;;;;;;;12.77;96.83;99090.54;1703117;83;21155;-66
2022/09/27 05:40:58;;;;;;;37.30;19.05;;;;;;;12.80;96.92;99086.77;1702750;83;21167;-64
2022/09/27 05:43:28;;;;;;;32.90;18.60;;;;;;;12.84;96.95;99088.48;1717289;83;21588;-65
2022/09/27 05:46:00;;;;;;;32.78;19.02;;;;;;;12.87;96.80;99091.58;1715964;83;21255;-64
2022/09/27 05:48:31;;;;;;;34.25;20.30;;;;;;;12.83;96.47;99090.39;1715459;83;21601;-65
2022/09/27 05:51:05;;;;;;;38.58;20.05;;;;;;;12.84;96.57;99095.35;1716426;82;21587;-65
2022/09/27 05:53:37;;;;;;;35.63;18.95;;;;;;;12.86;96.55;99088.53;1732060;82;21641;-65
2022/09/27 05:56:10;;;;;;;33.95;19.27;;;;;;;12.90;96.47;99089.71;1742853;82;21131;-63
2022/09/27 05:58:58;;;;;;;34.80;20.12;;;;;;;12.92;96.19;99084.80;1727996;82;21218;-64
2022/09/27 06:01:31;;;;;;;32.58;19.57;;;;;;;12.92;96.05;99090.30;1751512;80;21106;-64
2022/09/27 06:04:15;;;;;;;40.90;21.42;;;;;;;12.95;96.14;99084.31;1753606;80;21591;-65
2022/09/27 06:06:46;;;;;;;30.15;17.85;;;;;;;12.99;96.11;99090.98;1768144;80;21198;-66
2022/09/27 06:09:17;;;;;;;33.42;19.02;;;;;;;13.01;96.12;99087.48;1751696;82;21111;-63
2022/09/27 06:11:49;;;;;;;37.38;20.97;;;;;;;13.07;96.02;99094.45;1764192;80;21531;-65
2022/09/27 06:14:21;;;;;;;37.90;21.37;;;;;;;13.09;95.88;99085.42;1775906;80;21099;-64
2022/09/27 06:17:02;;;;;;;35.95;20.10;;;;;;;13.12;95.85;99084.92;1776215;80;21138;-64
2022/09/27 06:19:35;;;;;;;39.38;18.75;;;;;;;13.11;95.62;99087.38;1751918;80;21158;-66
2022/09/27 06:22:06;;;;;;;38.60;19.40;;;;;;;13.11;95.63;99079.97;1752003;80;21123;-65
2022/09/27 06:24:42;;;;;;;35.98;19.05;;;;;;;13.13;95.49;99076.97;1711160;83;21194;-66
2022/09/27 06:27:17;;;;;;;38.00;20.50;;;;;;;13.12;95.53;99075.30;1763859;80;21148;-65
2022/09/27 06:30:01;;;;;;;30.40;17.98;;;;;;;13.13;95.48;99075.06;1746024;80;21111;-64
2022/09/27 06:33:01;;;;;;;39.30;19.40;;;;;;;13.15;95.47;99078.94;1758594;80;21554;-66
2022/09/27 06:35:45;;;;;;;35.58;16.80;;;;;;;13.14;95.38;99082.23;1715286;83;21577;-65
2022/09/27 06:38:17;;;;;;;42.88;22.37;;;;;;;13.15;95.65;99080.31;1751785;80;21147;-64
2022/09/27 06:40:49;;;;;;;43.92;23.50;;;;;;;13.17;95.92;99076.80;1773950;80;21190;-64
2022/09/27 06:43:34;;;;;;;42.30;19.55;;;;;;;13.21;96.19;99088.44;1780384;80;21123;-64
2022/09/27 06:46:18;;;;;;;35.58;18.50;;;;;;;13.25;96.26;99084.11;1762635;80;21246;-64
2022/09/27 06:48:50;;;;;;;38.53;18.05;;;;;;;13.28;96.31;99082.78;1772228;80;21083;-64
2022/09/27 06:51:21;;;;;;;57.13;30.82;;;;;;;13.33;96.47;99083.70;1768615;80;21613;-65
2022/09/27 06:53:52;;;;;;;40.05;19.00;;;;;;;13.38;96.48;99079.37;1782144;80;21209;-66
2022/09/27 06:56:22;;;;;;;42.38;18.07;;;;;;;13.38;96.34;99082.97;1765820;79;21098;-65
2022/09/27 07:01:45;;;;;;;48.38;18.82;;;;;;;13.39;96.44;99075.00;1746951;81;21112;-64
2022/09/27 07:04:33;;;;;;;48.05;18.92;;;;;;;13.37;96.37;99068.08;1743713;81;21159;-64
2022/09/27 07:07:09;;;;;;;41.08;19.42;;;;;;;13.34;96.50;99063.91;1743777;81;21124;-64
2022/09/27 07:09:42;;;;;;;47.30;18.92;;;;;;;13.35;96.64;99061.45;1743656;81;21174;-64
2022/09/27 07:12:13;;;;;;;44.35;20.25;;;;;;;13.37;96.71;99060.66;1733725;81;21178;-64
2022/09/27 07:14:44;;;;;;;45.20;18.92;;;;;;;13.41;96.96;99068.71;1743743;81;21163;-65
2022/09/27 07:17:15;;;;;;;44.75;19.80;;;;;;;13.43;97.24;99070.67;1743960;81;21123;-64
2022/09/27 07:19:48;;;;;;;42.85;19.32;;;;;;;13.45;97.43;99078.14;1701412;82;21142;-63
2022/09/27 07:22:18;;;;;;;44.03;20.32;;;;;;;13.44;97.58;99081.14;1745690;81;21119;-64
2022/09/27 07:24:50;;;;;;;46.18;20.08;;;;;;;13.44;97.82;99077.84;1762712;81;21540;-63
2022/09/27 07:27:24;;;;;;;45.78;20.57;;;;;;;13.43;97.93;99079.47;1761000;81;21166;-65
2022/09/27 07:29:53;;;;;;;42.62;19.95;;;;;;;13.44;98.23;99070.97;1744066;81;21139;-64
2022/09/27 07:32:26;;;;;;;50.92;20.20;;;;;;;13.48;98.41;99069.38;1744037;81;21127;-65
2022/09/27 07:34:56;;;;;;;57.53;20.15;;;;;;;13.51;98.32;99061.17;1689541;84;21127;-64
2022/09/27 07:37:26;;;;;;;47.00;19.95;;;;;;;13.54;98.40;99062.05;1707553;84;21158;-64
2022/09/27 07:39:56;;;;;;;48.63;20.60;;;;;;;13.53;98.39;99058.46;1744087;81;21140;-65
2022/09/27 07:42:27;;;;;;;44.40;19.90;;;;;;;13.54;98.50;99060.67;1685334;84;21266;-66
2022/09/27 07:44:58;;;;;;;50.63;22.80;;;;;;;13.55;98.61;99060.42;1744032;81;21119;-65
2022/09/27 07:47:47;;;;;;;37.78;18.27;;;;;;;13.55;98.75;99060.97;1706909;82;21087;-66
2022/09/27 07:50:20;;;;;;;42.62;20.43;;;;;;;13.56;98.93;99061.26;1752118;81;21123;-66
2022/09/27 07:52:55;;;;;;;42.38;19.30;;;;;;;13.60;99.12;99055.55;1759205;81;21116;-65
2022/09/27 07:55:37;;;;;;;36.68;18.00;;;;;;;13.61;99.11;99053.08;1746747;81;21195;-65
2022/09/27 07:58:12;;;;;;;34.08;16.52;;;;;;;13.59;99.21;99049.75;1750872;81;21116;-63
2022/09/27 08:00:42;;;;;;;34.35;16.48;;;;;;;13.62;99.38;99052.00;1768739;81;21586;-65
2022/09/27 08:03:14;;;;;;;30.88;16.77;;;;;;;13.63;99.34;99038.53;1765323;81;21582;-65
2022/09/27 08:05:46;;;;;;;35.13;18.80;;;;;;;13.64;99.33;99037.45;1746464;81;21143;-66
2022/09/27 08:08:19;;;;;;;34.48;17.80;;;;;;;13.62;99.31;99044.58;1743631;81;21593;-66
2022/09/27 08:10:52;;;;;;;37.50;18.32;;;;;;;13.62;99.44;99040.99;1743529;81;21190;-65
2022/09/27 08:13:23;;;;;;;42.38;18.27;;;;;;;13.64;99.59;99042.95;1750152;81;21620;-66
2022/09/27 08:15:54;;;;;;;42.50;18.67;;;;;;;13.69;99.63;99042.23;1754108;81;21567;-66
2022/09/27 08:18:25;;;;;;;40.70;19.05;;;;;;;13.71;99.70;99043.64;1722145;81;21111;-66
2022/09/27 08:20:58;;;;;;;42.78;19.80;;;;;;;13.74;99.75;99043.14;1758198;81;21115;-64
2022/09/27 08:23:33;;;;;;;41.50;20.27;;;;;;;13.74;99.78;99044.52;1757240;81;21151;-66
2022/09/27 08:26:11;;;;;;;45.23;20.43;;;;;;;13.75;99.88;99043.43;1750408;80;21206;-66
2022/09/27 08:28:52;;;;;;;38.75;18.77;;;;;;;13.78;99.86;99044.84;1755390;81;21175;-65
2022/09/27 08:31:24;;;;;;;39.23;19.70;;;;;;;13.80;99.87;99044.05;1743725;80;21170;-66
2022/09/27 08:33:56;;;;;;;38.33;18.80;;;;;;;13.83;99.94;99050.44;1756672;81;21143;-67
2022/09/27 08:36:29;;;;;;;37.73;19.32;;;;;;;13.85;99.94;99045.51;1756422;81;21535;-67
2022/09/27 08:38:59;;;;;;;43.20;21.93;;;;;;;13.84;99.86;99046.59;1743681;81;21581;-67
2022/09/27 08:41:38;;;;;;;46.50;21.02;;;;;;;13.87;100.00;99039.20;1743258;81;21088;-68
2022/09/27 08:44:19;;;;;;;41.92;19.92;;;;;;;13.91;99.97;99047.25;1735553;81;21151;-67
2022/09/27 08:47:02;;;;;;;45.50;21.25;;;;;;;13.91;99.86;99043.95;1742531;81;21145;-69
2022/09/27 08:50:00;;;;;;;44.50;21.17;;;;;;;13.93;99.99;99037.66;1743942;80;21151;-66
2022/09/27 08:52:42;;;;;;;45.35;22.32;;;;;;;13.94;100.00;99034.36;1743966;82;21190;-67
2022/09/27 08:55:53;;;;;;;45.65;21.30;;;;;;;13.93;100.00;99050.05;1751115;81;21119;-68
2022/09/27 08:58:40;;;;;;;36.70;19.12;;;;;;;13.94;100.00;99044.83;1768623;80;21151;-68
2022/09/27 09:01:15;;;;;;;33.73;17.98;;;;;;;13.93;100.00;99051.96;1746939;81;21112;-69
2022/09/27 09:03:51;;;;;;;34.95;18.27;;;;;;;13.93;100.00;99047.29;1744388;81;21544;-68
2022/09/27 09:06:24;;;;;;;40.63;21.70;;;;;;;13.95;100.00;99036.86;1755123;80;21119;-68
2022/09/27 09:09:17;;;;;;;35.00;19.05;;;;;;;13.99;100.00;99035.81;1767678;81;21139;-67
2022/09/27 09:12:45;;;;;;;36.63;18.73;;;;;;;14.02;100.00;99027.03;1742920;81;21104;-69
2022/09/27 09:15:56;;;;;;;33.13;18.37;;;;;;;14.04;100.00;99028.99;1761091;81;21139;-67
2022/09/27 09:19:03;;;;;;;33.73;19.92;;;;;;;14.10;100.00;99036.23;1773835;80;21104;-66
2022/09/27 09:22:09;;;;;;;34.75;19.87;;;;;;;14.12;100.00;99036.82;1742608;81;21095;-67
2022/09/27 09:25:00;;;;;;;31.93;17.92;;;;;;;14.14;100.00;99034.64;1763101;80;21158;-67
2022/09/27 09:27:51;;;;;;;37.13;18.67;;;;;;;14.14;100.00;99033.27;1743508;82;21104;-66
2022/09/27 09:30:23;;;;;;;32.40;17.95;;;;;;;14.15;100.00;99030.80;1726048;82;21215;-67
2022/09/27 09:33:16;;;;;;;36.75;18.27;;;;;;;14.17;100.00;99023.12;1772787;81;21107;-67
2022/09/27 09:36:03;;;;;;;27.75;18.57;;;;;;;14.20;100.00;99028.11;1697369;84;21162;-67
2022/09/27 09:38:50;;;;;;;30.25;17.60;;;;;;;14.25;100.00;99033.70;1743829;81;21172;-65
2022/09/27 09:41:30;;;;;;;31.85;16.93;;;;;;;14.29;100.00;99022.45;1717522;81;21186;-67
2022/09/27 09:44:06;;;;;;;27.00;16.77;;;;;;;14.33;100.00;99022.80;1755907;81;21139;-67
2022/09/27 09:46:42;;;;;;;33.42;17.50;;;;;;;14.31;100.00;99027.73;1752756;81;21183;-67
2022/09/27 09:49:24;;;;;;;28.87;16.82;;;;;;;14.32;100.00;99026.65;1753203;81;21127;-66
2022/09/27 09:52:04;;;;;;;29.18;18.73;;;;;;;14.34;100.00;99025.84;1740142;81;22153;-68
2022/09/27 09:54:45;;;;;;;28.17;18.35;;;;;;;14.35;100.00;99038.53;1773251;79;21131;-68
2022/09/27 09:57:25;;;;;;;30.20;18.25;;;;;;;14.37;100.00;99029.47;1759277;80;21113;-68
2022/09/27 10:00:16;;;;;;;29.23;16.12;;;;;;;14.36;100.00;99029.73;1770043;80;21186;-68
2022/09/27 10:02:47;;;;;;;29.67;17.40;;;;;;;14.39;100.00;99023.16;1756796;82;21150;-68
2022/09/27 10:05:25;;;;;;;26.97;16.80;;;;;;;14.44;100.00;99026.55;1769623;80;21098;-66
2022/09/27 10:07:58;;;;;;;31.75;18.20;;;;;;;14.46;100.00;99022.45;1756773;80;21108;-67
2022/09/27 10:10:28;;;;;;;36.42;18.98;;;;;;;14.49;100.00;99027.99;1708024;83;21141;-66
2022/09/27 10:13:19;;;;;;;28.15;17.82;;;;;;;14.47;100.00;99023.28;1691885;83;21125;-66
2022/09/27 10:16:02;;;;;;;27.82;16.93;;;;;;;14.44;100.00;99015.53;1704617;83;21179;-65
2022/09/27 10:18:32;;;;;;;29.82;18.30;;;;;;;14.44;100.00;99014.16;1710273;83;21152;-66
2022/09/27 10:21:06;;;;;;;31.35;18.73;;;;;;;14.46;100.00;99014.73;1657141;84;21257;-66
2022/09/27 10:23:36;;;;;;;24.92;16.95;;;;;;;14.49;100.00;99018.35;1695813;83;21275;-66
2022/09/27 10:26:11;;;;;;;28.87;17.87;;;;;;;14.50;100.00;99013.13;1660172;84;21271;-67
2022/09/27 10:28:50;;;;;;;25.48;16.05;;;;;;;14.48;100.00;99020.81;1689766;83;21169;-67
2022/09/27 10:31:21;;;;;;;26.45;16.90;;;;;;;14.52;100.00;99021.42;1720708;82;21134;-66
2022/09/27 10:34:04;;;;;;;26.68;16.97;;;;;;;14.50;100.00;99018.09;1701512;83;21164;-66
2022/09/27 10:36:41;;;;;;;27.17;16.60;;;;;;;14.52;100.00;99009.56;1712111;83;21150;-68
2022/09/27 10:39:21;;;;;;;28.75;18.95;;;;;;;14.54;100.00;99006.84;1695887;83;21203;-67
2022/09/27 10:41:51;;;;;;;30.00;18.77;;;;;;;14.55;100.00;98999.41;1682150;84;21155;-65
2022/09/27 10:44:31;;;;;;;31.37;20.02;;;;;;;14.56;100.00;98999.15;1715937;83;21135;-68
2022/09/27 10:47:09;;;;;;;38.38;22.10;;;;;;;14.63;100.00;99003.08;1728286;82;21605;-66
2022/09/27 10:49:43;;;;;;;34.75;21.48;;;;;;;14.67;100.00;99007.53;1714737;83;21212;-67
2022/09/27 10:52:20;;;;;;;37.58;23.10;;;;;;;14.70;100.00;99008.39;1713557;83;21127;-66
2022/09/27 10:55:03;;;;;;;37.58;24.25;;;;;;;14.70;100.00;99011.15;1669069;83;21170;-65
2022/09/27 10:57:32;;;;;;;35.70;21.35;;;;;;;14.65;100.00;99011.92;1722610;82;21166;-65
2022/09/27 11:00:31;;;;;;;44.18;22.98;;;;;;;14.64;100.00;99014.94;1733241;82;21159;-65
2022/09/27 11:03:07;;;;;;;47.78;22.00;;;;;;;14.65;100.00;99007.80;1720687;82;21135;-65
2022/09/27 11:05:38;;;;;;;50.07;23.77;;;;;;;14.66;100.00;99002.56;1713660;82;21638;-65
2022/09/27 11:08:29;;;;;;;47.85;25.08;;;;;;;14.67;100.00;99004.23;1709810;83;21154;-65
2022/09/27 11:11:18;;;;;;;51.80;24.25;;;;;;;14.66;100.00;98990.70;1709855;83;21159;-65
2022/09/27 11:14:06;;;;;;;52.13;27.67;;;;;;;14.65;100.00;98982.98;1709977;83;21155;-66
2022/09/27 11:17:02;;;;;;;44.45;23.90;;;;;;;14.66;100.00;98984.65;1720557;83;21135;-64
2022/09/27 11:19:40;;;;;;;51.88;24.52;;;;;;;14.67;99.95;98989.06;1715726;83;21187;-65
2022/09/27 11:22:40;;;;;;;48.02;23.40;;;;;;;14.64;99.77;98982.70;1700705;83;21290;-64
2022/09/27 11:25:35;;;;;;;50.48;25.75;;;;;;;14.60;99.72;98971.90;1700941;83;21466;-65
2022/09/27 11:28:35;;;;;;;54.38;24.47;;;;;;;14.58;99.91;98968.57;1702700;84;21183;-67
2022/09/27 11:31:34;;;;;;;52.20;24.82;;;;;;;14.59;100.00;98950.94;1702806;84;21140;-66
2022/09/27 11:34:10;;;;;;;52.95;23.95;;;;;;;14.60;100.00;98942.95;1687096;83;21127;-66
2022/09/27 11:37:11;;;;;;;48.25;25.72;;;;;;;14.63;100.00;98956.77;1724926;83;21147;-65
2022/09/27 11:40:09;;;;;;;50.70;26.27;;;;;;;14.66;99.97;98965.90;1727979;82;21123;-67
2022/09/27 11:43:06;;;;;;;50.40;24.12;;;;;;;14.69;99.86;98966.20;1693071;83;22148;-66
2022/09/27 11:45:58;;;;;;;54.05;26.00;;;;;;;14.73;99.72;98968.73;1692372;83;21623;-66
2022/09/27 11:49:17;;;;;;;50.23;24.65;;;;;;;14.73;99.36;98962.39;1711196;83;21594;-67
2022/09/27 11:52:35;;;;;;;47.23;24.25;;;;;;;14.78;99.47;98960.52;1709414;84;21044;-66
2022/09/27 11:55:25;;;;;;;48.85;26.23;;;;;;;14.87;99.30;98960.33;1690620;82;21091;-67
2022/09/27 11:58:24;;;;;;;49.35;25.82;;;;;;;14.92;99.34;98971.95;1708048;82;21056;-64
2022/09/27 12:01:27;;;;;;;51.20;25.65;;;;;;;14.97;99.38;98975.34;1740218;81;21534;-67
2022/09/27 12:04:28;;;;;;;47.93;24.15;;;;;;;15.02;99.10;98969.88;1743530;82;21043;-66
2022/09/27 12:07:24;;;;;;;48.13;25.23;;;;;;;15.04;98.83;98967.13;1703455;84;21035;-66
2022/09/27 12:09:58;;;;;;;51.85;26.57;;;;;;;15.03;98.54;98966.85;1743509;81;21067;-66
2022/09/27 12:12:30;;;;;;;59.95;27.82;;;;;;;15.01;98.37;98965.45;1758004;81;21031;-66
2022/09/27 12:15:02;;;;;;;51.55;26.23;;;;;;;15.01;98.21;98969.59;1748844;80;21028;-67
2022/09/27 12:17:39;;;;;;;55.78;28.12;;;;;;;15.01;98.13;98973.17;1743830;81;21066;-65
2022/09/27 12:20:27;;;;;;;54.58;26.45;;;;;;;15.04;98.15;98968.52;1707398;83;21023;-65